Pagina principale
METAR-TAF:

METAR-TAF

Aeroporti :

La Chaux-de-Fonds, Svizzera

latitudine: 47-05-03N, longitudine: 006-47-37E, altezza: 1027 m

Osservazione

Il bollettino è stato emesso 29 minuti fa, alle 09:50 UTC
Vento calmo
Temperature 17°C
Umidità 45%
Pressione 1020 hPa
Visibilità 10 km o più
nessuna nube inferiore a 1500 m e nessun cumulonembo

METAR: LSGC 170950Z 00000KT CAVOK 17/05 Q1020

Ora: 12:19 (10:19 UTC)

Previsione

Il bollettino è stato emesso 1 ora e 54 minuti fa, alle 08:25 UTC
Previsione valida dal 17 alle 09 UTC al 17 alle 18 UTC
Vento 5 kt da est/nord-est
Visibilità 10 km o più
nessuna nube inferiore a 1500 m e nessun cumulonembo

TAF: LSGC 170825Z 1709/1718 06005KT CAVOK

Osservazioni e previsioni meteorologiche di più di 4000 aeroporti (messaggi METAR e TAF).

Le stazioni disponibili sono rappresentate dai dischi gialli e rossi sulla carta.

Puntare il mouse per vedere il nome della stazione.

Clicca sopra per visualizzare le osservazioni e previsioni meteorologiche.

Per cambiare la mappa : fare clic sui pulsanti verdi con una croce nera per ingrandire, il pulsante verde con un trattino per diminuire, o sulla freccia verde per le mappe adiacenti.


METAR-TAF: